Time;durP1;ratioP1;P1;durP2;ratioP2;P2;SDS_P1;SDS_P2;PMS_P1;PMS_P2;Temp;Humidity;BMP_temperature;BMP_pressure;BME280_temperature;BME280_humidity;BME280_pressure;Samples;Min_cycle;Max_cycle;Signal;HPM_P1;HPM_P2
2022/11/12 00:00:42;;;;;;;13.00;9.07;;;;;;;-145.18;100.00;46683.84;5030140;28;20652;-67
2022/11/12 00:03:08;;;;;;;15.47;9.40;;;;;;;-145.18;100.00;46695.56;5020940;28;20037;-66
2022/11/12 00:05:33;;;;;;;12.40;9.47;;;;;;;-145.18;100.00;46691.66;5009583;28;20041;-66
2022/11/12 00:07:59;;;;;;;16.73;10.37;;;;;;;-145.18;100.00;46687.75;5010086;28;20042;-66
2022/11/12 00:10:25;;;;;;;15.60;11.13;;;;;;;-145.18;100.00;46687.75;5009106;28;20160;-67
2022/11/12 00:12:51;;;;;;;12.53;9.73;;;;;;;-145.18;100.00;46689.69;5008208;28;20034;-67
2022/11/12 00:15:16;;;;;;;14.73;10.53;;;;;;;-145.18;100.00;46689.69;5010555;28;20641;-66
2022/11/12 00:17:42;;;;;;;12.27;10.43;;;;;;;-145.18;100.00;46687.75;5009605;28;20041;-68
2022/11/12 00:20:08;;;;;;;10.40;8.00;;;;;;;-145.18;100.00;46685.78;5010375;28;20041;-69
2022/11/12 00:22:34;;;;;;;7.63;6.80;;;;;;;-145.18;100.00;46695.56;5009847;28;20398;-69
2022/11/12 00:24:59;;;;;;;9.67;6.80;;;;;;;-145.18;100.00;46699.47;5010063;28;20274;-69
2022/11/12 00:27:25;;;;;;;10.30;7.73;;;;;;;-145.18;100.00;46699.47;5010311;28;20034;-69
2022/11/12 00:29:50;;;;;;;9.80;7.67;;;;;;;-145.18;100.00;46705.31;5010084;28;20953;-69
2022/11/12 00:32:16;;;;;;;14.60;9.57;;;;;;;-145.18;100.00;46707.28;5010380;28;20542;-69
2022/11/12 00:34:41;;;;;;;15.77;10.17;;;;;;;-145.18;100.00;46709.22;5010006;28;20057;-69
2022/11/12 00:37:07;;;;;;;13.60;9.70;;;;;;;-145.18;100.00;46703.38;5010193;28;20478;-69
2022/11/12 00:39:32;;;;;;;15.03;10.27;;;;;;;-145.18;100.00;46703.38;5010129;28;20034;-69
2022/11/12 00:41:58;;;;;;;14.17;9.97;;;;;;;-145.18;100.00;46701.41;5009816;28;20515;-69
2022/11/12 00:44:23;;;;;;;19.33;9.40;;;;;;;-145.18;100.00;46709.22;5010003;28;20034;-69
2022/11/12 00:46:49;;;;;;;11.30;8.80;;;;;;;-145.18;100.00;46707.28;5009758;28;20040;-69
2022/11/12 00:49:14;;;;;;;15.37;9.83;;;;;;;-145.18;100.00;46701.41;5010223;28;20113;-69
2022/11/12 00:51:40;;;;;;;14.20;10.03;;;;;;;-145.18;100.00;46701.41;5009600;28;20034;-69
2022/11/12 00:54:05;;;;;;;13.47;10.07;;;;;;;-145.18;100.00;46713.13;5010047;28;20096;-68
2022/11/12 00:56:31;;;;;;;21.97;11.60;;;;;;;-145.18;100.00;46703.38;5010054;28;20446;-68
2022/11/12 00:58:57;;;;;;;16.83;11.47;;;;;;;-145.18;100.00;46703.38;4991873;28;20417;-68
2022/11/12 01:01:23;;;;;;;17.63;11.90;;;;;;;-145.18;100.00;46711.19;5009739;28;20065;-68
2022/11/12 01:03:48;;;;;;;16.87;11.77;;;;;;;-145.18;100.00;46701.41;5009707;28;20061;-68
2022/11/12 01:06:17;;;;;;;17.13;10.03;;;;;;;-145.18;100.00;46705.31;5009841;28;20037;-68
2022/11/12 01:08:43;;;;;;;12.33;8.70;;;;;;;-145.18;100.00;46711.19;5009491;28;20056;-68
2022/11/12 01:11:28;;;;;;;11.73;8.37;;;;;;;-145.18;100.00;46709.22;5009862;28;20705;-69
2022/11/12 01:14:06;;;;;;;13.93;10.30;;;;;;;-145.18;100.00;46703.38;5010170;28;20030;-68
2022/11/12 01:16:36;;;;;;;14.43;9.60;;;;;;;-145.18;100.00;46701.41;5011011;28;20813;-68
2022/11/12 01:19:03;;;;;;;14.00;9.00;;;;;;;-145.18;100.00;46699.47;5013636;28;20339;-68
2022/11/12 01:21:31;;;;;;;17.73;11.90;;;;;;;-145.18;100.00;46709.22;5013262;28;20299;-68
2022/11/12 01:23:58;;;;;;;18.17;13.47;;;;;;;-145.18;100.00;46701.41;5013211;28;21017;-68
2022/11/12 01:26:27;;;;;;;17.27;12.60;;;;;;;-145.18;100.00;46707.28;5013148;28;20619;-68
2022/11/12 01:28:53;;;;;;;23.77;14.47;;;;;;;-145.18;100.00;46699.47;5013411;28;20367;-69
2022/11/12 01:31:20;;;;;;;20.43;14.33;;;;;;;-145.18;100.00;46687.75;5013108;28;20272;-68
2022/11/12 01:33:48;;;;;;;23.77;15.43;;;;;;;-145.18;100.00;46697.50;5013320;28;20439;-68
2022/11/12 01:36:16;;;;;;;19.17;13.90;;;;;;;-145.18;100.00;46695.56;5013257;28;20715;-68
2022/11/12 01:38:43;;;;;;;44.27;14.63;;;;;;;-145.18;100.00;46695.56;5013189;28;20276;-68
2022/11/12 01:41:13;;;;;;;21.33;13.67;;;;;;;-145.18;100.00;46697.50;5013044;28;20295;-69
2022/11/12 01:43:38;;;;;;;21.10;14.60;;;;;;;-145.18;100.00;46697.50;5012965;28;20267;-68
2022/11/12 01:46:12;;;;;;;19.07;14.23;;;;;;;-145.18;100.00;46697.50;5013222;28;20272;-69
2022/11/12 01:48:59;;;;;;;18.67;13.07;;;;;;;-145.18;100.00;46691.66;5013145;28;20036;-68
2022/11/12 01:51:30;;;;;;;17.13;11.73;;;;;;;-145.18;100.00;46699.47;5012423;28;20290;-69
2022/11/12 01:53:59;;;;;;;23.97;13.80;;;;;;;-145.18;100.00;46703.38;5012843;28;20266;-68
2022/11/12 01:56:28;;;;;;;23.80;14.37;;;;;;;-145.18;100.00;46689.69;5012851;28;20264;-68
2022/11/12 01:59:01;;;;;;;34.53;14.60;;;;;;;-145.18;100.00;46697.50;5012730;28;20263;-68
2022/11/12 02:01:26;;;;;;;74.40;15.30;;;;;;;-145.18;100.00;46701.41;5012746;28;20286;-68
2022/11/12 02:03:52;;;;;;;47.17;15.80;;;;;;;-145.18;100.00;46703.38;5012344;28;20698;-68
2022/11/12 02:06:19;;;;;;;72.13;15.13;;;;;;;-145.18;100.00;46697.50;5012487;28;20088;-68
2022/11/12 02:08:44;;;;;;;81.63;14.47;;;;;;;-145.18;100.00;46699.47;5012772;28;20041;-68
2022/11/12 02:11:13;;;;;;;54.17;13.07;;;;;;;-145.18;100.00;46695.56;5012650;28;20275;-68
2022/11/12 02:13:57;;;;;;;33.77;11.53;;;;;;;-145.18;100.00;46705.31;5012690;28;20049;-69
2022/11/12 02:16:35;;;;;;;23.40;13.03;;;;;;;-145.18;100.00;46701.41;5012290;28;20296;-68
2022/11/12 02:19:02;;;;;;;36.13;14.13;;;;;;;-145.18;100.00;46699.47;5012495;28;20366;-68
2022/11/12 02:21:28;;;;;;;97.50;15.23;;;;;;;-145.18;100.00;46687.75;5012289;28;20298;-68
2022/11/12 02:24:26;;;;;;;23.87;13.47;;;;;;;-145.18;100.00;46697.50;5012332;28;20790;-69
2022/11/12 02:26:54;;;;;;;78.63;13.67;;;;;;;-145.18;100.00;46697.50;5012024;28;20278;-68
2022/11/12 02:29:21;;;;;;;98.63;12.53;;;;;;;-145.18;100.00;46687.75;5011521;28;20329;-68
2022/11/12 02:31:46;;;;;;;36.17;10.43;;;;;;;-145.18;100.00;46687.75;5011860;28;20271;-68
2022/11/12 02:34:12;;;;;;;135.03;13.20;;;;;;;-145.18;100.00;46689.69;5012335;28;20276;-68
2022/11/12 02:36:37;;;;;;;74.00;12.57;;;;;;;-145.18;100.00;46697.50;4993926;28;20084;-68
2022/11/12 02:39:03;;;;;;;27.73;11.63;;;;;;;-145.18;100.00;46691.66;5012154;28;20068;-69
2022/11/12 02:41:28;;;;;;;30.87;11.10;;;;;;;-145.18;100.00;46685.78;5012071;28;20053;-68
2022/11/12 02:43:54;;;;;;;69.03;13.73;;;;;;;-145.18;100.00;46687.75;5011730;28;20144;-69
2022/11/12 02:46:19;;;;;;;91.63;13.53;;;;;;;-145.18;100.00;46683.84;5011968;28;20048;-68
2022/11/12 02:48:45;;;;;;;52.40;12.30;;;;;;;-145.18;100.00;46687.75;5011825;28;20109;-68
2022/11/12 02:51:11;;;;;;;31.83;13.13;;;;;;;-145.18;100.00;46689.69;5012095;28;20034;-68
2022/11/12 02:53:36;;;;;;;24.17;12.93;;;;;;;-145.18;100.00;46687.75;5011954;28;20271;-68
2022/11/12 02:56:02;;;;;;;23.50;13.37;;;;;;;-145.18;100.00;46687.75;5011626;28;20645;-68
2022/11/12 02:58:28;;;;;;;21.70;11.93;;;;;;;-145.18;100.00;46681.88;5011776;28;20036;-68
2022/11/12 03:03:29;;;;;;;19.27;10.65;;;;;;;-145.18;100.00;46693.59;5045181;23;20653;-69
2022/11/12 03:06:00;;;;;;;17.83;10.37;;;;;;;-145.18;100.00;46695.56;4991921;28;20034;-68
2022/11/12 03:08:26;;;;;;;14.17;11.07;;;;;;;-145.18;100.00;46687.75;4992057;28;20081;-69
2022/11/12 03:10:51;;;;;;;30.80;11.87;;;;;;;-145.18;100.00;46685.78;4992011;28;20268;-69
2022/11/12 03:13:17;;;;;;;15.27;11.83;;;;;;;-145.18;100.00;46685.78;4992111;28;20343;-69
2022/11/12 03:15:43;;;;;;;15.27;11.80;;;;;;;-145.18;100.00;46689.69;4974883;28;20491;-69
2022/11/12 03:18:08;;;;;;;16.37;11.40;;;;;;;-145.18;100.00;46683.84;4990583;28;20084;-69
2022/11/12 03:20:33;;;;;;;15.57;10.80;;;;;;;-145.18;100.00;46687.75;4990333;28;20491;-69
2022/11/12 03:23:02;;;;;;;15.03;11.43;;;;;;;-145.18;100.00;46685.78;4991699;28;20026;-68
2022/11/12 03:25:28;;;;;;;16.70;12.33;;;;;;;-145.18;100.00;46685.78;4992134;28;20034;-69
2022/11/12 03:28:00;;;;;;;16.27;12.20;;;;;;;-145.18;100.00;46687.75;4991450;28;20732;-69
2022/11/12 03:30:28;;;;;;;21.17;13.10;;;;;;;-145.18;100.00;46687.75;4992023;28;20030;-69
2022/11/12 03:32:53;;;;;;;39.13;14.63;;;;;;;-145.18;100.00;46685.78;4991186;28;20625;-69
2022/11/12 03:35:19;;;;;;;40.30;13.80;;;;;;;-145.18;100.00;46689.69;4991926;28;20286;-69
2022/11/12 03:37:45;;;;;;;30.67;14.07;;;;;;;-145.18;100.00;46681.88;4974313;28;20038;-69
2022/11/12 03:40:10;;;;;;;35.50;9.80;;;;;;;-145.18;100.00;46685.78;4991080;28;20173;-69
2022/11/12 03:42:35;;;;;;;23.67;9.23;;;;;;;-145.18;100.00;46691.66;4991360;28;20035;-69
2022/11/12 03:45:01;;;;;;;24.20;9.40;;;;;;;-145.18;100.00;46693.59;4991461;28;20479;-69
2022/11/12 03:47:26;;;;;;;11.30;9.30;;;;;;;-145.18;100.00;46689.69;4991377;28;20038;-69
2022/11/12 03:49:51;;;;;;;18.17;12.40;;;;;;;-145.18;100.00;46683.84;4991227;28;20080;-69
2022/11/12 03:52:17;;;;;;;19.20;12.93;;;;;;;-145.18;100.00;46691.66;4991213;28;20088;-69
2022/11/12 03:54:42;;;;;;;19.13;12.53;;;;;;;-145.18;100.00;46687.75;4991347;28;20505;-69
2022/11/12 03:57:07;;;;;;;16.47;11.37;;;;;;;-145.18;100.00;46689.69;4990909;28;20046;-69
2022/11/12 03:59:33;;;;;;;14.23;10.93;;;;;;;-145.18;100.00;46695.56;4991244;28;20052;-69
2022/11/12 04:01:58;;;;;;;20.80;12.07;;;;;;;-145.18;100.00;46693.59;4990466;28;20038;-69
2022/11/12 04:08:34;;;;;;;15.57;11.67;;;;;;;-145.18;100.00;46695.56;4991103;28;20499;-69
2022/11/12 04:09:52;;;;;;;24.30;15.93;;;;;;;-145.18;100.00;46687.75;4991251;28;20553;-69
2022/11/12 04:15:02;;;;;;;21.53;14.87;;;;;;;-145.18;100.00;46695.56;4991106;28;20038;-69
2022/11/12 04:22:55;;;;;;;18.37;11.10;;;;;;;-145.18;100.00;46689.69;4990711;28;20690;-69
2022/11/12 04:28:06;;;;;;;20.00;14.32;;;;;;;-145.18;100.00;46689.69;4979376;28;20042;-69
2022/11/12 04:30:31;;;;;;;21.17;13.50;;;;;;;-145.18;100.00;46695.56;4990665;28;20042;-69
2022/11/12 04:32:57;;;;;;;41.43;14.70;;;;;;;-145.18;100.00;46687.75;4990470;28;20078;-69
2022/11/12 04:35:24;;;;;;;19.07;13.47;;;;;;;-145.18;100.00;46687.75;4990926;28;20072;-69
2022/11/12 04:37:50;;;;;;;20.93;14.30;;;;;;;-145.18;100.00;46691.66;4973278;28;20039;-69
2022/11/12 04:45:54;;;;;;;26.07;13.87;;;;;;;-145.18;100.00;46689.69;4990549;28;20306;-69
2022/11/12 04:48:20;;;;;;;112.90;16.43;;;;;;;-145.18;100.00;46697.50;4973016;28;20272;-69
2022/11/12 04:50:52;;;;;;;19.63;13.23;;;;;;;-145.18;100.00;46693.59;4990937;28;20299;-69
2022/11/12 04:53:17;;;;;;;20.00;13.40;;;;;;;-145.18;100.00;46703.38;4994663;28;20322;-69
2022/11/12 04:55:43;;;;;;;21.63;15.30;;;;;;;-145.18;100.00;46687.75;4994872;28;20267;-69
2022/11/12 04:58:09;;;;;;;18.90;14.37;;;;;;;-145.18;100.00;46695.56;4993954;28;20037;-69
2022/11/12 05:00:34;;;;;;;18.40;14.77;;;;;;;-145.18;100.00;46693.59;5012244;28;20137;-69
2022/11/12 05:02:59;;;;;;;22.63;14.70;;;;;;;-145.18;100.00;46695.56;4994460;28;20045;-69
2022/11/12 05:05:25;;;;;;;20.37;14.17;;;;;;;-145.18;100.00;46691.66;5011552;28;20255;-69
2022/11/12 05:07:50;;;;;;;21.23;14.47;;;;;;;-145.18;100.00;46701.41;5010931;28;20076;-69
2022/11/12 05:10:16;;;;;;;27.77;16.37;;;;;;;-145.18;100.00;46693.59;4997958;28;20042;-69
2022/11/12 05:12:42;;;;;;;18.57;14.17;;;;;;;-145.18;100.00;46705.31;4997010;28;20029;-69
2022/11/12 05:15:08;;;;;;;28.50;15.07;;;;;;;-145.18;100.00;46691.66;4997871;28;20038;-69
2022/11/12 05:17:34;;;;;;;21.47;13.33;;;;;;;-145.18;100.00;46697.50;4999776;28;20259;-69
2022/11/12 05:19:59;;;;;;;20.80;12.97;;;;;;;-145.18;100.00;46695.56;5004011;28;20349;-69
2022/11/12 05:22:25;;;;;;;25.10;13.87;;;;;;;-145.18;100.00;46693.59;5010511;28;20042;-69
2022/11/12 05:24:50;;;;;;;18.17;12.20;;;;;;;-145.18;100.00;46691.66;4996587;28;20046;-69
2022/11/12 05:27:18;;;;;;;19.43;13.40;;;;;;;-145.18;100.00;46691.66;4999216;28;20041;-69
2022/11/12 05:29:43;;;;;;;17.63;13.30;;;;;;;-145.18;100.00;46687.75;4999571;28;20391;-70
2022/11/12 05:32:14;;;;;;;17.57;13.17;;;;;;;-145.18;100.00;46693.59;4976327;28;20282;-69
2022/11/12 05:34:40;;;;;;;19.20;13.13;;;;;;;-145.18;100.00;46689.69;4993755;28;20113;-69
2022/11/12 05:37:07;;;;;;;25.37;14.30;;;;;;;-145.18;100.00;46697.50;4993593;28;20343;-69
2022/11/12 05:39:33;;;;;;;20.67;14.17;;;;;;;-145.18;100.00;46687.75;4993640;28;20038;-69
2022/11/12 05:41:58;;;;;;;21.67;15.30;;;;;;;-145.18;100.00;46681.88;4993844;28;20315;-69
2022/11/12 05:44:24;;;;;;;23.90;16.90;;;;;;;-145.18;100.00;46683.84;4993636;28;20038;-69
2022/11/12 05:46:49;;;;;;;22.73;17.07;;;;;;;-145.18;100.00;46689.69;4994527;28;20438;-69
2022/11/12 05:49:16;;;;;;;23.60;16.57;;;;;;;-145.18;100.00;46681.88;4995113;28;20038;-69
2022/11/12 05:51:41;;;;;;;39.77;14.57;;;;;;;-145.18;100.00;46691.66;5010394;28;20065;-69
2022/11/12 05:54:07;;;;;;;19.80;14.13;;;;;;;-145.18;100.00;46691.66;5006621;28;20744;-69
2022/11/12 05:56:33;;;;;;;20.17;14.80;;;;;;;-145.18;100.00;46687.75;5010314;28;20550;-69
2022/11/12 05:59:00;;;;;;;21.17;15.37;;;;;;;-145.18;100.00;46695.56;5012418;28;20033;-69
2022/11/12 06:01:25;;;;;;;21.93;15.80;;;;;;;-145.18;100.00;46685.78;5012971;28;20557;-69
2022/11/12 06:03:50;;;;;;;23.37;17.37;;;;;;;-145.18;100.00;46695.56;5011817;28;20306;-69
2022/11/12 06:06:16;;;;;;;32.10;20.10;;;;;;;-145.18;100.00;46691.66;5012587;28;20042;-69
2022/11/12 06:08:41;;;;;;;32.23;19.87;;;;;;;-145.18;100.00;46689.69;5012568;28;20049;-69
2022/11/12 06:11:06;;;;;;;30.03;19.70;;;;;;;-145.18;100.00;46695.56;5012297;28;20121;-69
2022/11/12 06:13:32;;;;;;;28.63;20.57;;;;;;;-145.18;100.00;46693.59;5012567;28;20034;-69
2022/11/12 06:15:57;;;;;;;33.03;20.40;;;;;;;-145.18;100.00;46693.59;5012426;28;20044;-69
2022/11/12 06:18:24;;;;;;;33.90;21.10;;;;;;;-145.18;100.00;46691.66;5012190;28;20041;-69
2022/11/12 06:21:18;;;;;;;30.70;22.03;;;;;;;-145.18;100.00;46685.78;4994812;28;20504;-69
2022/11/12 06:23:35;;;;;;;30.80;21.00;;;;;;;-145.18;100.00;46683.84;5006393;28;20292;-69
2022/11/12 06:26:01;;;;;;;33.57;20.50;;;;;;;-145.18;100.00;46685.78;4993395;28;20064;-70
2022/11/12 06:28:27;;;;;;;34.27;21.80;;;;;;;-145.18;100.00;46685.78;5011412;28;20037;-69
2022/11/12 06:30:52;;;;;;;30.57;22.20;;;;;;;-145.18;100.00;46693.59;5002074;28;20038;-69
2022/11/12 06:33:18;;;;;;;33.03;21.37;;;;;;;-145.18;100.00;46687.75;5012098;28;20430;-69
2022/11/12 06:35:43;;;;;;;32.87;20.87;;;;;;;-145.18;100.00;46685.78;5012303;28;20036;-69
2022/11/12 06:38:09;;;;;;;33.13;21.37;;;;;;;-145.18;100.00;46683.84;5011627;28;20044;-69
2022/11/12 06:40:34;;;;;;;31.33;18.20;;;;;;;-145.18;100.00;46683.84;5012691;28;20100;-69
2022/11/12 06:43:00;;;;;;;42.73;17.97;;;;;;;-145.18;100.00;46693.59;5011806;28;20609;-69
2022/11/12 06:45:25;;;;;;;28.03;19.77;;;;;;;-145.18;100.00;46689.69;5011811;28;20042;-69
2022/11/12 06:47:51;;;;;;;31.37;20.17;;;;;;;-145.18;100.00;46683.84;5011678;28;20047;-69
2022/11/12 06:50:16;;;;;;;30.83;19.47;;;;;;;-145.18;100.00;46687.75;5011948;28;20033;-69
2022/11/12 06:52:42;;;;;;;29.03;19.43;;;;;;;-145.18;100.00;46683.84;5011917;28;20528;-69
2022/11/12 06:55:09;;;;;;;26.03;18.20;;;;;;;-145.18;100.00;46691.66;5011597;28;20129;-69
2022/11/12 06:57:35;;;;;;;26.50;19.33;;;;;;;-145.18;100.00;46689.69;5011592;28;20037;-69
2022/11/12 07:00:00;;;;;;;33.33;17.53;;;;;;;-145.18;100.00;46685.78;4993709;28;20722;-69
2022/11/12 07:02:26;;;;;;;32.50;19.53;;;;;;;-145.18;100.00;46683.84;5011449;28;20080;-68
2022/11/12 07:04:51;;;;;;;29.83;19.97;;;;;;;-145.18;100.00;46683.84;5011539;28;20038;-69
2022/11/12 07:07:17;;;;;;;30.20;19.23;;;;;;;-145.18;100.00;46687.75;5007361;28;20426;-69
2022/11/12 07:09:42;;;;;;;25.53;17.30;;;;;;;-145.18;100.00;46687.75;4993567;28;20544;-69
2022/11/12 07:12:07;;;;;;;25.23;17.47;;;;;;;-145.18;100.00;46687.75;5007107;28;20136;-69
2022/11/12 07:14:33;;;;;;;24.90;18.67;;;;;;;-145.18;100.00;46697.50;5010833;28;20092;-69
2022/11/12 07:16:58;;;;;;;30.77;17.90;;;;;;;-145.18;100.00;46687.75;5021827;28;20048;-69
2022/11/12 07:19:24;;;;;;;28.37;17.60;;;;;;;-145.18;100.00;46689.69;5030814;28;20037;-69
2022/11/12 07:21:50;;;;;;;25.47;17.17;;;;;;;-145.18;100.00;46695.56;5027393;28;20465;-69
2022/11/12 07:24:15;;;;;;;29.47;15.27;;;;;;;-145.18;100.00;46687.75;5010412;28;20030;-69
2022/11/12 07:26:41;;;;;;;26.43;16.77;;;;;;;-145.18;100.00;46687.75;5008116;28;20333;-69
2022/11/12 07:29:06;;;;;;;30.27;18.13;;;;;;;-145.18;100.00;46691.66;5010676;28;20034;-69
2022/11/12 07:31:32;;;;;;;28.27;19.17;;;;;;;-145.18;100.00;46691.66;5018007;28;20041;-69
2022/11/12 07:33:57;;;;;;;31.37;19.83;;;;;;;-145.18;100.00;46691.66;5030023;28;20045;-69
2022/11/12 07:36:22;;;;;;;27.70;19.57;;;;;;;-145.18;100.00;46693.59;5030100;28;20540;-69
2022/11/12 07:38:51;;;;;;;28.63;20.13;;;;;;;-145.18;100.00;46685.78;5030134;28;20033;-69
2022/11/12 07:41:19;;;;;;;29.73;19.50;;;;;;;-145.18;100.00;46687.75;5029631;28;20040;-69
2022/11/12 07:43:46;;;;;;;28.93;19.50;;;;;;;-145.18;100.00;46685.78;5030219;28;20301;-69
2022/11/12 07:46:15;;;;;;;27.17;18.97;;;;;;;-145.18;100.00;46687.75;5029779;28;20298;-69
2022/11/12 07:48:41;;;;;;;30.00;18.97;;;;;;;-145.18;100.00;46691.66;5018601;28;20341;-69
2022/11/12 07:51:12;;;;;;;28.73;19.37;;;;;;;-145.18;100.00;46687.75;5013912;28;20730;-69
2022/11/12 07:53:38;;;;;;;28.90;19.07;;;;;;;-145.18;100.00;46687.75;5030240;28;20025;-69
2022/11/12 07:56:04;;;;;;;29.10;18.43;;;;;;;-145.18;100.00;46685.78;5030203;28;20782;-69
2022/11/12 07:58:32;;;;;;;27.67;19.33;;;;;;;-145.18;100.00;46685.78;5030170;28;20095;-69
2022/11/12 08:00:57;;;;;;;29.20;19.70;;;;;;;-145.18;100.00;46691.66;5029663;28;20327;-69
2022/11/12 08:03:23;;;;;;;31.83;20.13;;;;;;;-145.18;100.00;46679.94;5029578;28;20301;-69
2022/11/12 08:05:49;;;;;;;31.70;20.63;;;;;;;-145.18;100.00;46681.88;5029977;28;20037;-70
2022/11/12 08:08:15;;;;;;;33.97;20.83;;;;;;;-145.18;100.00;46689.69;5029522;28;20373;-70
2022/11/12 08:10:41;;;;;;;33.43;20.73;;;;;;;-145.18;100.00;46687.75;5029371;28;20310;-70
2022/11/12 08:13:06;;;;;;;35.93;21.10;;;;;;;-145.18;100.00;46683.84;5029715;28;20049;-70
2022/11/12 08:15:32;;;;;;;35.77;22.23;;;;;;;-145.18;100.00;46676.03;5012099;28;20037;-69
2022/11/12 08:17:57;;;;;;;32.53;20.93;;;;;;;-145.18;100.00;46676.03;5029549;28;20469;-69
2022/11/12 08:20:23;;;;;;;36.33;21.83;;;;;;;-145.18;100.00;46685.78;5029574;28;20760;-69
2022/11/12 08:22:48;;;;;;;35.07;22.40;;;;;;;-145.18;100.00;46685.78;5029608;28;20044;-69
2022/11/12 08:25:14;;;;;;;35.67;22.13;;;;;;;-145.18;100.00;46681.88;5008475;28;20057;-69
2022/11/12 08:27:39;;;;;;;34.90;21.70;;;;;;;-145.18;100.00;46679.94;5008683;28;20033;-69
2022/11/12 08:30:06;;;;;;;36.53;21.63;;;;;;;-145.18;100.00;46681.88;5009135;28;20041;-69
2022/11/12 08:32:31;;;;;;;36.70;21.60;;;;;;;-145.18;100.00;46681.88;5008595;28;20030;-69
2022/11/12 08:34:56;;;;;;;40.17;23.57;;;;;;;-145.18;100.00;46679.94;5009279;28;20283;-69
2022/11/12 08:37:22;;;;;;;39.03;22.77;;;;;;;-145.18;100.00;46679.94;5023580;28;20033;-69
2022/11/12 08:39:47;;;;;;;42.07;23.33;;;;;;;-145.18;100.00;46677.97;5012830;28;20484;-69
2022/11/12 08:42:12;;;;;;;37.93;21.70;;;;;;;-145.18;100.00;46677.97;5022174;28;20107;-69
2022/11/12 08:44:38;;;;;;;36.97;21.70;;;;;;;-145.18;100.00;46683.84;5029167;28;20072;-69
2022/11/12 08:47:03;;;;;;;40.80;22.63;;;;;;;-145.18;100.00;46679.94;5027281;28;20064;-69
2022/11/12 08:49:29;;;;;;;38.27;22.70;;;;;;;-145.18;100.00;46674.06;5009434;28;20112;-70
2022/11/12 08:51:54;;;;;;;43.07;23.37;;;;;;;-145.18;100.00;46676.03;5009344;28;20022;-70
2022/11/12 08:54:20;;;;;;;39.03;22.10;;;;;;;-145.18;100.00;46676.03;5009709;28;20121;-70
2022/11/12 08:56:45;;;;;;;40.90;22.87;;;;;;;-145.18;100.00;46674.06;5008480;28;20081;-70
2022/11/12 08:59:11;;;;;;;32.40;19.10;;;;;;;-145.18;100.00;46676.03;5008105;28;20513;-70
2022/11/12 09:01:36;;;;;;;27.77;17.23;;;;;;;-145.18;100.00;46672.13;4992655;28;20037;-70
2022/11/12 09:04:01;;;;;;;24.33;16.67;;;;;;;-145.18;100.00;46677.97;5004267;28;20461;-70
2022/11/12 09:06:27;;;;;;;22.27;16.60;;;;;;;-145.18;100.00;46677.97;5007561;28;20792;-70
2022/11/12 09:08:52;;;;;;;26.30;16.37;;;;;;;-145.18;100.00;46679.94;5008094;28;20037;-70
2022/11/12 09:11:18;;;;;;;22.33;16.20;;;;;;;-145.18;100.00;46676.03;5007806;28;20120;-70
2022/11/12 09:13:43;;;;;;;23.70;15.40;;;;;;;-145.18;100.00;46676.03;5008199;28;20081;-70
2022/11/12 09:16:09;;;;;;;22.60;15.43;;;;;;;-145.18;100.00;46679.94;4974819;28;20068;-70
2022/11/12 09:18:35;;;;;;;27.17;15.90;;;;;;;-145.18;100.00;46679.94;4990162;28;20410;-70
2022/11/12 09:21:03;;;;;;;19.27;14.23;;;;;;;-145.18;100.00;46679.94;5008118;28;20307;-70
2022/11/12 09:23:29;;;;;;;23.97;14.23;;;;;;;-145.18;100.00;46679.94;5005281;28;20042;-70
2022/11/12 09:25:55;;;;;;;16.53;13.53;;;;;;;-145.18;100.00;46679.94;5008156;28;20326;-70
2022/11/12 09:28:21;;;;;;;22.10;14.50;;;;;;;-145.18;100.00;46683.84;5008077;28;20033;-70
2022/11/12 09:30:49;;;;;;;22.27;14.53;;;;;;;-145.18;100.00;46683.84;5008517;28;20272;-71
2022/11/12 09:33:16;;;;;;;19.93;13.10;;;;;;;-145.18;100.00;46685.78;5009088;28;20037;-71
2022/11/12 09:35:42;;;;;;;19.57;13.63;;;;;;;-145.18;100.00;46681.88;5025963;28;20258;-70
2022/11/12 09:38:07;;;;;;;20.57;12.93;;;;;;;-145.18;100.00;46685.78;5031280;28;20777;-70
2022/11/12 09:40:45;;;;;;;19.57;13.40;;;;;;;-145.18;100.00;46687.75;5032117;28;20037;-70
2022/11/12 09:43:24;;;;;;;21.67;13.83;;;;;;;-145.18;100.00;46683.84;5026453;28;20038;-71
2022/11/12 09:45:51;;;;;;;23.20;13.83;;;;;;;-145.18;100.00;46693.59;4991296;28;20286;-70
2022/11/12 09:48:30;;;;;;;17.27;12.30;;;;;;;-145.18;100.00;46691.66;4993075;28;20625;-71
2022/11/12 09:51:04;;;;;;;27.23;13.10;;;;;;;-145.18;100.00;46687.75;4993293;28;20268;-70
2022/11/12 09:53:35;;;;;;;17.20;12.63;;;;;;;-145.18;100.00;46689.69;4994278;28;20620;-71
2022/11/12 09:56:05;;;;;;;19.10;13.10;;;;;;;-145.18;100.00;46693.59;5031897;28;20813;-70
2022/11/12 09:58:31;;;;;;;17.43;12.97;;;;;;;-145.18;100.00;46691.66;5032025;28;20261;-70
2022/11/12 10:01:02;;;;;;;19.40;13.20;;;;;;;-145.18;100.00;46693.59;5032385;28;20290;-70
2022/11/12 10:03:39;;;;;;;18.17;13.13;;;;;;;-145.18;100.00;46691.66;5031657;28;20056;-70
2022/11/12 10:06:18;;;;;;;20.43;12.90;;;;;;;-145.18;100.00;46693.59;5012449;28;20282;-70
2022/11/12 10:08:54;;;;;;;17.43;11.53;;;;;;;-145.18;100.00;46701.41;5010177;28;20256;-70
2022/11/12 10:14:37;;;;;;;21.53;13.57;;;;;;;-145.18;100.00;46691.66;5017862;28;20105;-70
2022/11/12 10:17:50;;;;;;;18.87;11.53;;;;;;;-145.18;100.00;46691.66;5032285;28;20065;-71
2022/11/12 10:20:28;;;;;;;14.50;11.10;;;;;;;-145.18;100.00;46685.78;5031338;28;20052;-71
2022/11/12 10:22:59;;;;;;;17.67;11.33;;;;;;;-145.18;100.00;46672.13;5031891;28;20034;-70
2022/11/12 10:25:26;;;;;;;12.63;10.60;;;;;;;-145.18;100.00;46668.22;5031527;28;20278;-71
2022/11/12 10:27:54;;;;;;;14.17;9.93;;;;;;;-145.18;100.00;46648.69;5031567;28;20045;-70
2022/11/12 10:30:23;;;;;;;12.37;10.40;;;;;;;-145.18;100.00;46611.56;5031638;28;20462;-71
2022/11/12 10:32:51;;;;;;;13.77;8.73;;;;;;;-145.18;100.00;46586.16;5031785;28;20041;-72
2022/11/12 10:35:20;;;;;;;12.53;8.57;;;;;;;-145.18;100.00;46572.50;5031220;28;20033;-72
2022/11/12 10:38:03;;;;;;;12.97;7.47;;;;;;;-145.18;100.00;46578.34;5031320;28;20065;-72
2022/11/12 10:40:40;;;;;;;10.97;7.83;;;;;;;-145.18;100.00;46599.84;5031099;28;20037;-72
2022/11/12 10:43:14;;;;;;;10.47;7.80;;;;;;;-145.18;100.00;46617.41;5031553;28;20048;-72
2022/11/12 10:45:40;;;;;;;13.57;7.90;;;;;;;-145.18;100.00;46615.47;5022865;28;20033;-72
2022/11/12 10:48:19;;;;;;;11.97;8.80;;;;;;;-145.18;100.00;46625.22;5031246;28;20045;-72
2022/11/12 10:50:44;;;;;;;12.37;8.63;;;;;;;-145.18;100.00;46636.94;5030962;28;20627;-72
2022/11/12 10:53:11;;;;;;;13.43;8.47;;;;;;;-145.18;100.00;46640.88;5030302;28;20113;-72
2022/11/12 10:55:53;;;;;;;10.97;7.57;;;;;;;-145.18;100.00;46644.78;5028908;28;20631;-72
2022/11/12 10:58:19;;;;;;;13.07;8.10;;;;;;;-145.18;100.00;46644.78;5013004;28;20056;-72
2022/11/12 11:00:54;;;;;;;10.23;8.33;;;;;;;-145.18;100.00;46668.22;5030898;28;20486;-72
2022/11/12 11:03:23;;;;;;;11.33;7.80;;;;;;;-145.18;100.00;46658.44;5030546;28;20053;-72
2022/11/12 11:05:51;;;;;;;11.10;8.50;;;;;;;-145.18;100.00;46666.25;5030716;28;20282;-72
2022/11/12 11:08:50;;;;;;;12.87;8.20;;;;;;;-145.18;100.00;46656.50;5030155;28;20083;-72
2022/11/12 11:11:15;;;;;;;12.17;8.50;;;;;;;-145.18;100.00;46656.50;5030640;28;20420;-72
2022/11/12 11:13:40;;;;;;;12.03;8.20;;;;;;;-145.18;100.00;46668.22;5030887;28;20394;-72
2022/11/12 11:16:09;;;;;;;11.97;8.10;;;;;;;-145.18;100.00;46654.53;5030622;28;20040;-72
2022/11/12 11:18:37;;;;;;;10.43;7.93;;;;;;;-145.18;100.00;46695.56;5030784;28;20033;-72
2022/11/12 11:21:33;;;;;;;10.87;8.13;;;;;;;-145.18;100.00;46711.19;5030238;28;20044;-72